createdAt,value
2023-05-18T00:00:19.769Z,9.689331
2023-05-18T00:01:29.411Z,9.719543
2023-05-18T00:02:37.211Z,9.729614
2023-05-18T00:03:45.840Z,9.739685
2023-05-18T00:04:54.556Z,9.689331
2023-05-18T00:06:04.110Z,9.729614
2023-05-18T00:07:11.786Z,9.719543
2023-05-18T00:08:20.416Z,9.790039
2023-05-18T00:09:30.084Z,9.830322
2023-05-18T00:10:37.793Z,9.870605
2023-05-18T00:11:47.500Z,9.910889
2023-05-18T00:12:56.139Z,9.971313
2023-05-18T00:14:05.798Z,9.981384
2023-05-18T00:15:15.464Z,10.021667
2023-05-18T00:16:25.222Z,10.102234
2023-05-18T00:17:33.940Z,10.132446
2023-05-18T00:18:43.584Z,10.152588
2023-05-18T00:19:53.229Z,10.172729
2023-05-18T00:21:02.900Z,10.172729
2023-05-18T00:22:11.538Z,10.192871
2023-05-18T00:23:21.213Z,10.162659
2023-05-18T00:24:29.864Z,10.122375
2023-05-18T00:25:39.561Z,10.102234
2023-05-18T00:26:49.228Z,10.092163
2023-05-18T00:27:56.875Z,10.05188
2023-05-18T00:29:06.519Z,10.072021
2023-05-18T00:30:16.193Z,10.072021
2023-05-18T00:31:23.918Z,10.092163
2023-05-18T00:32:33.629Z,10.092163
2023-05-18T00:33:44.212Z,10.132446
2023-05-18T00:34:52.650Z,10.102234
2023-05-18T00:36:02.306Z,10.122375
2023-05-18T00:37:11.968Z,10.152588
2023-05-18T00:38:20.610Z,10.172729
2023-05-18T00:39:30.301Z,10.172729
2023-05-18T00:40:38.037Z,10.223083
2023-05-18T00:41:48.668Z,10.192871
2023-05-18T00:42:57.361Z,10.223083
2023-05-18T00:44:06.078Z,10.233154
2023-05-18T00:45:15.767Z,10.202942
2023-05-18T00:46:24.453Z,10.202942
2023-05-18T00:47:33.157Z,10.172729
2023-05-18T00:48:42.746Z,10.162659
2023-05-18T00:49:50.466Z,10.152588
2023-05-18T00:51:00.165Z,10.122375
2023-05-18T00:52:07.770Z,10.122375
2023-05-18T00:53:17.406Z,10.102234
2023-05-18T00:54:27.093Z,10.05188
2023-05-18T00:55:34.737Z,10.021667
2023-05-18T00:56:44.420Z,10.011597
2023-05-18T00:57:54.037Z,10.011597
2023-05-18T00:59:01.705Z,10.021667
2023-05-18T01:00:11.341Z,9.951172
2023-05-18T01:01:20.036Z,9.971313
2023-05-18T01:02:28.761Z,9.951172
2023-05-18T01:03:38.349Z,9.971313
2023-05-18T01:04:45.948Z,9.951172
2023-05-18T01:05:54.618Z,9.951172
2023-05-18T01:07:04.282Z,9.951172
2023-05-18T01:08:13.952Z,9.920959
2023-05-18T01:09:23.590Z,9.910889
2023-05-18T01:10:33.299Z,9.890747
2023-05-18T01:11:42.956Z,9.870605
2023-05-18T01:12:52.695Z,9.860535
2023-05-18T01:14:01.295Z,9.860535
2023-05-18T01:15:10.979Z,9.830322
2023-05-18T01:16:20.666Z,9.769897
2023-05-18T01:17:28.314Z,9.729614
2023-05-18T01:18:37.962Z,9.719543
2023-05-18T01:19:46.592Z,9.67926
2023-05-18T01:20:55.238Z,9.638977
2023-05-18T01:22:04.930Z,9.618835
2023-05-18T01:23:14.567Z,9.54834
2023-05-18T01:24:23.221Z,9.477844
2023-05-18T01:25:32.871Z,9.407349
2023-05-18T01:26:39.536Z,9.437561
2023-05-18T01:27:49.179Z,9.437561
2023-05-18T01:28:57.840Z,9.407349
2023-05-18T01:30:06.483Z,9.397278
2023-05-18T01:31:16.411Z,9.397278
2023-05-18T01:32:25.816Z,9.407349
2023-05-18T01:33:34.455Z,9.367065
2023-05-18T01:34:44.112Z,9.387207
2023-05-18T01:35:51.805Z,9.387207
2023-05-18T01:37:01.434Z,9.397278
2023-05-18T01:38:11.080Z,9.387207
2023-05-18T01:39:20.725Z,9.367065
2023-05-18T01:40:30.402Z,9.336853
2023-05-18T01:41:38.104Z,9.356995
2023-05-18T01:42:46.817Z,9.336853
2023-05-18T01:43:56.466Z,9.387207
2023-05-18T01:45:05.197Z,9.397278
2023-05-18T01:46:14.867Z,9.407349
2023-05-18T01:47:23.509Z,9.397278
2023-05-18T01:48:31.147Z,9.356995
2023-05-18T01:49:40.820Z,9.286499
2023-05-18T01:50:49.476Z,9.256287
2023-05-18T01:51:58.124Z,9.286499
2023-05-18T01:53:07.783Z,9.246216
2023-05-18T01:54:16.469Z,9.17572
2023-05-18T01:55:26.143Z,9.185791
2023-05-18T01:56:34.842Z,9.185791
2023-05-18T01:57:43.509Z,9.105225
2023-05-18T01:58:53.177Z,9.034729
2023-05-18T02:00:02.844Z,9.0448
2023-05-18T02:01:10.502Z,9.064941
2023-05-18T02:02:20.289Z,9.095154
2023-05-18T02:03:28.928Z,9.075012
2023-05-18T02:04:38.456Z,9.125366
2023-05-18T02:05:46.109Z,9.216003
2023-05-18T02:06:54.754Z,9.205933
2023-05-18T02:08:04.404Z,9.256287
2023-05-18T02:09:15.092Z,9.336853
2023-05-18T02:10:24.821Z,9.316711
2023-05-18T02:11:33.520Z,9.356995
2023-05-18T02:12:42.160Z,9.306641
2023-05-18T02:13:51.869Z,9.387207
2023-05-18T02:15:00.504Z,9.42749
2023-05-18T02:16:08.204Z,9.407349
2023-05-18T02:17:17.876Z,9.457703
2023-05-18T02:18:26.518Z,9.397278
2023-05-18T02:19:36.172Z,9.407349
2023-05-18T02:20:43.804Z,9.42749
2023-05-18T02:21:53.501Z,9.477844
2023-05-18T02:23:03.198Z,9.477844
2023-05-18T02:24:11.840Z,9.578552
2023-05-18T02:25:21.521Z,9.578552
2023-05-18T02:26:30.178Z,9.558411
2023-05-18T02:27:38.989Z,9.618835
2023-05-18T02:28:48.663Z,9.608765
2023-05-18T02:29:56.296Z,9.538269
2023-05-18T02:31:04.928Z,9.588623
2023-05-18T02:32:14.668Z,9.608765
2023-05-18T02:33:23.268Z,9.578552
2023-05-18T02:34:32.942Z,9.618835
2023-05-18T02:35:41.524Z,9.638977
2023-05-18T02:36:51.242Z,9.67926
2023-05-18T02:38:00.979Z,9.719543
2023-05-18T02:39:11.652Z,9.719543
2023-05-18T02:40:20.273Z,9.739685
2023-05-18T02:41:29.945Z,9.719543
2023-05-18T02:42:37.656Z,9.790039
2023-05-18T02:43:47.314Z,9.80011
2023-05-18T02:44:56.957Z,9.820251
2023-05-18T02:46:05.692Z,9.840393
2023-05-18T02:47:15.313Z,9.840393
2023-05-18T02:48:22.957Z,9.80011
2023-05-18T02:49:32.688Z,9.769897
2023-05-18T02:50:42.327Z,9.769897
2023-05-18T02:51:51.011Z,9.790039
2023-05-18T02:53:00.661Z,9.759827
2023-05-18T02:54:09.314Z,9.759827
2023-05-18T02:55:17.996Z,9.820251
2023-05-18T02:56:27.725Z,9.80011
2023-05-18T02:57:36.505Z,9.80011
2023-05-18T02:58:46.086Z,9.820251
2023-05-18T02:59:55.756Z,9.80011
2023-05-18T03:01:03.507Z,9.729614
2023-05-18T03:02:13.142Z,9.649048
2023-05-18T03:03:22.980Z,9.659119
2023-05-18T03:04:32.430Z,9.649048
2023-05-18T03:05:42.159Z,9.659119
2023-05-18T03:06:50.811Z,9.618835
2023-05-18T03:08:00.451Z,9.588623
2023-05-18T03:09:10.160Z,9.618835
2023-05-18T03:10:18.135Z,9.54834
2023-05-18T03:11:27.800Z,9.558411
2023-05-18T03:12:36.475Z,9.638977
2023-05-18T03:13:44.166Z,9.578552
2023-05-18T03:14:53.832Z,9.508057
2023-05-18T03:16:02.544Z,9.497986
2023-05-18T03:17:12.219Z,9.508057
2023-05-18T03:18:21.832Z,9.497986
2023-05-18T03:19:30.568Z,9.538269
2023-05-18T03:20:40.194Z,9.508057
2023-05-18T03:21:49.868Z,9.588623
2023-05-18T03:22:59.489Z,9.54834
2023-05-18T03:24:09.192Z,9.497986
2023-05-18T03:25:17.828Z,9.42749
2023-05-18T03:26:26.464Z,9.437561
2023-05-18T03:27:36.120Z,9.367065
2023-05-18T03:28:43.798Z,9.286499
2023-05-18T03:29:53.472Z,9.286499
2023-05-18T03:31:03.197Z,9.276428
2023-05-18T03:32:12.833Z,9.316711
2023-05-18T03:33:22.539Z,9.336853
2023-05-18T03:34:30.202Z,9.256287
2023-05-18T03:35:38.824Z,9.256287
2023-05-18T03:36:49.532Z,9.276428
2023-05-18T03:37:57.275Z,9.336853
2023-05-18T03:39:06.880Z,9.367065
2023-05-18T03:40:16.517Z,9.397278
2023-05-18T03:41:24.161Z,9.356995
2023-05-18T03:42:33.854Z,9.306641
2023-05-18T03:43:43.488Z,9.316711
2023-05-18T03:44:52.166Z,9.316711
2023-05-18T03:46:01.898Z,9.276428
2023-05-18T03:47:09.601Z,9.306641
2023-05-18T03:48:19.247Z,9.246216
2023-05-18T03:49:28.949Z,9.226074
2023-05-18T03:50:37.662Z,9.246216
2023-05-18T03:51:47.415Z,9.256287
2023-05-18T03:52:56.077Z,9.256287
2023-05-18T03:54:04.747Z,9.306641
2023-05-18T03:55:14.384Z,9.286499
2023-05-18T03:56:22.140Z,9.306641
2023-05-18T03:57:31.839Z,9.256287
2023-05-18T03:58:41.489Z,9.276428
2023-05-18T03:59:49.181Z,9.256287
2023-05-18T04:00:59.863Z,9.286499
2023-05-18T04:02:08.577Z,9.256287
2023-05-18T04:03:17.333Z,9.286499
2023-05-18T04:04:26.881Z,9.276428
2023-05-18T04:05:34.563Z,9.316711
2023-05-18T04:06:44.229Z,9.367065
2023-05-18T04:07:53.874Z,9.397278
2023-05-18T04:09:01.504Z,9.437561
2023-05-18T04:10:10.274Z,9.477844
2023-05-18T04:11:19.909Z,9.497986
2023-05-18T04:12:29.564Z,9.588623
2023-05-18T04:13:39.187Z,9.659119
2023-05-18T04:14:48.855Z,9.759827
2023-05-18T04:15:58.615Z,9.689331
2023-05-18T04:17:07.207Z,9.739685
2023-05-18T04:18:16.858Z,9.820251
2023-05-18T04:19:25.551Z,9.80011
2023-05-18T04:20:34.218Z,9.820251
2023-05-18T04:21:43.861Z,9.820251
2023-05-18T04:22:52.554Z,9.860535
2023-05-18T04:24:02.234Z,9.910889
2023-05-18T04:25:11.918Z,10.011597
2023-05-18T04:26:20.638Z,10.041809
2023-05-18T04:27:30.277Z,10.041809
2023-05-18T04:28:39.921Z,10.102234
2023-05-18T04:29:47.598Z,10.102234
2023-05-18T04:30:57.257Z,10.192871
2023-05-18T04:32:05.936Z,10.223083
2023-05-18T04:33:15.624Z,10.313721
2023-05-18T04:34:25.263Z,10.343933
2023-05-18T04:35:33.008Z,10.404358
2023-05-18T04:36:42.559Z,10.404358
2023-05-18T04:37:52.237Z,10.384216
2023-05-18T04:38:59.903Z,10.4245
2023-05-18T04:40:09.636Z,10.484924
2023-05-18T04:41:17.274Z,10.505066
2023-05-18T04:42:26.021Z,10.625916
2023-05-18T04:43:35.610Z,10.666199
2023-05-18T04:44:43.253Z,10.67627
2023-05-18T04:45:52.966Z,10.585632
2023-05-18T04:47:02.616Z,10.595703
2023-05-18T04:48:11.341Z,10.55542
2023-05-18T04:49:20.966Z,10.484924
2023-05-18T04:50:28.595Z,10.4245
2023-05-18T04:51:37.228Z,10.535278
2023-05-18T04:52:46.918Z,10.605774
2023-05-18T04:53:55.583Z,10.565491
2023-05-18T04:55:04.212Z,10.68634
2023-05-18T04:56:12.841Z,10.746765
2023-05-18T04:57:22.517Z,10.635986
2023-05-18T04:58:32.223Z,10.565491
2023-05-18T04:59:40.830Z,10.625916
2023-05-18T05:00:50.525Z,10.635986
2023-05-18T05:02:00.216Z,10.80719
2023-05-18T05:03:08.904Z,10.917969
2023-05-18T05:04:18.538Z,10.968323
2023-05-18T05:05:27.520Z,10.988464
2023-05-18T05:06:34.865Z,10.988464
2023-05-18T05:07:44.509Z,11.069031
2023-05-18T05:08:53.168Z,11.169739
2023-05-18T05:10:02.836Z,11.260376
2023-05-18T05:11:12.513Z,11.290588
2023-05-18T05:12:21.373Z,11.250305
2023-05-18T05:13:31.098Z,11.149597
2023-05-18T05:14:40.767Z,11.139526
2023-05-18T05:15:50.495Z,11.119385
2023-05-18T05:17:00.263Z,11.18988
2023-05-18T05:18:08.939Z,11.230164
2023-05-18T05:19:17.642Z,11.290588
2023-05-18T05:20:27.253Z,11.330872
2023-05-18T05:21:35.952Z,11.451721
2023-05-18T05:22:45.612Z,11.502075
2023-05-18T05:23:54.229Z,11.522217
2023-05-18T05:25:06.012Z,11.502075
2023-05-18T05:26:13.536Z,11.451721
2023-05-18T05:27:21.176Z,11.44165
2023-05-18T05:28:29.818Z,11.512146
2023-05-18T05:29:38.496Z,11.572571
2023-05-18T05:30:46.358Z,11.542358
2023-05-18T05:31:55.954Z,11.622925
2023-05-18T05:33:04.627Z,11.653137
2023-05-18T05:34:14.216Z,11.653137
2023-05-18T05:35:23.897Z,11.663208
2023-05-18T05:36:33.536Z,11.804199
2023-05-18T05:37:42.159Z,11.723633
2023-05-18T05:38:51.825Z,11.703491
2023-05-18T05:40:00.494Z,11.864624
2023-05-18T05:41:10.171Z,11.914978
2023-05-18T05:42:18.883Z,12.035828
2023-05-18T05:43:26.528Z,11.94519
2023-05-18T05:44:36.264Z,11.844482
2023-05-18T05:45:43.949Z,11.884766
2023-05-18T05:46:52.593Z,11.874695
2023-05-18T05:48:02.250Z,11.834412
2023-05-18T05:49:11.633Z,11.884766
2023-05-18T05:50:21.338Z,11.864624
2023-05-18T05:51:29.959Z,11.93512
2023-05-18T05:52:37.662Z,12.086182
2023-05-18T05:53:47.398Z,12.19696
2023-05-18T05:54:55.036Z,12.368164
2023-05-18T05:56:04.696Z,12.458801
2023-05-18T05:57:15.373Z,12.579651
2023-05-18T05:58:24.049Z,12.56958
2023-05-18T05:59:33.747Z,12.680359
2023-05-18T06:00:42.389Z,12.760925
2023-05-18T06:01:50.126Z,12.730713
2023-05-18T06:02:59.785Z,12.720642
2023-05-18T06:04:08.448Z,12.750854
2023-05-18T06:05:17.099Z,12.619934
2023-05-18T06:06:26.746Z,12.44873
2023-05-18T06:07:35.474Z,12.468872
2023-05-18T06:08:45.098Z,12.650146
2023-05-18T06:09:54.768Z,12.760925
2023-05-18T06:11:03.448Z,12.861633
2023-05-18T06:12:13.104Z,12.932129
2023-05-18T06:13:21.746Z,12.871704
2023-05-18T06:14:31.488Z,12.901917
2023-05-18T06:15:40.196Z,12.801208
2023-05-18T06:16:49.887Z,12.861633
2023-05-18T06:17:59.572Z,12.982483
2023-05-18T06:19:08.216Z,13.052979
2023-05-18T06:20:17.846Z,13.133545
2023-05-18T06:21:27.530Z,13.113403
2023-05-18T06:22:36.211Z,13.083191
2023-05-18T06:23:45.844Z,13.19397
2023-05-18T06:24:54.531Z,13.133545
2023-05-18T06:26:03.190Z,13.204041
2023-05-18T06:27:12.809Z,13.153687
2023-05-18T06:28:21.475Z,13.234253
2023-05-18T06:29:31.104Z,13.365173
2023-05-18T06:30:40.785Z,13.486023
2023-05-18T06:31:49.512Z,13.536377
2023-05-18T06:32:59.168Z,13.647156
2023-05-18T06:34:07.929Z,13.737793
2023-05-18T06:35:16.640Z,13.808289
2023-05-18T06:36:26.256Z,13.929138
2023-05-18T06:37:33.920Z,13.989563
2023-05-18T06:38:43.560Z,14.110413
2023-05-18T06:39:52.193Z,14.150696
2023-05-18T06:41:00.853Z,14.251404
2023-05-18T06:42:10.498Z,14.33197
2023-05-18T06:43:20.206Z,14.291687
2023-05-18T06:44:28.849Z,14.503174
2023-05-18T06:45:38.765Z,14.58374
2023-05-18T06:46:47.238Z,14.694519
2023-05-18T06:47:56.904Z,14.684448
2023-05-18T06:49:06.554Z,14.402466
2023-05-18T06:50:15.234Z,14.442749
2023-05-18T06:51:25.098Z,14.372253
2023-05-18T06:52:34.718Z,14.261475
2023-05-18T06:53:44.374Z,14.291687
2023-05-18T06:54:54.056Z,14.352112
2023-05-18T06:56:01.712Z,14.533386
2023-05-18T06:57:11.416Z,14.593811
2023-05-18T06:58:21.108Z,14.694519
2023-05-18T06:59:28.838Z,14.694519
2023-05-18T07:00:38.482Z,14.936218
2023-05-18T07:01:46.173Z,14.996643
2023-05-18T07:02:54.820Z,15.137634
2023-05-18T07:04:04.531Z,15.308838
2023-05-18T07:05:13.102Z,15.359192
2023-05-18T07:06:22.748Z,15.510254
2023-05-18T07:07:31.437Z,15.4599
2023-05-18T07:08:41.201Z,15.490112
2023-05-18T07:09:50.885Z,15.681458
2023-05-18T07:10:59.671Z,15.792236
2023-05-18T07:12:09.296Z,15.439758
2023-05-18T07:13:19.985Z,15.550537
2023-05-18T07:14:28.746Z,15.721741
2023-05-18T07:15:38.683Z,15.84259
2023-05-18T07:16:47.312Z,15.923157
2023-05-18T07:17:55.252Z,15.802307
2023-05-18T07:19:05.115Z,15.540466
2023-05-18T07:20:13.657Z,15.469971
2023-05-18T07:21:24.305Z,15.651245
2023-05-18T07:22:34.033Z,15.762024
2023-05-18T07:23:42.642Z,15.520325
2023-05-18T07:24:52.398Z,15.762024
2023-05-18T07:26:00.974Z,16.054077
2023-05-18T07:27:08.634Z,16.124573
2023-05-18T07:28:18.330Z,16.023865
2023-05-18T07:29:27.061Z,16.054077
2023-05-18T07:30:35.695Z,16.255493
2023-05-18T07:31:45.427Z,16.164856
2023-05-18T07:32:54.044Z,16.235352
2023-05-18T07:34:03.721Z,16.134644
2023-05-18T07:35:14.332Z,16.164856
2023-05-18T07:36:22.976Z,16.195068
2023-05-18T07:37:32.790Z,16.305847
2023-05-18T07:38:40.434Z,16.406555
2023-05-18T07:39:50.100Z,16.537476
2023-05-18T07:40:59.757Z,16.648254
2023-05-18T07:42:08.466Z,16.658325
2023-05-18T07:43:17.134Z,16.809387
2023-05-18T07:44:25.766Z,16.97052
2023-05-18T07:45:35.445Z,17.081299
2023-05-18T07:46:45.179Z,17.262573
2023-05-18T07:47:53.809Z,17.34314
2023-05-18T07:49:02.485Z,17.463989
2023-05-18T07:50:12.149Z,17.34314
2023-05-18T07:51:19.829Z,17.383423
2023-05-18T07:52:29.523Z,17.574768
2023-05-18T07:53:38.167Z,17.564697
2023-05-18T07:54:45.922Z,17.675476
2023-05-18T07:55:55.477Z,17.85675
2023-05-18T07:57:03.152Z,17.917175
2023-05-18T07:58:12.826Z,18.09845
2023-05-18T07:59:22.502Z,18.038025
2023-05-18T08:00:32.197Z,18.048096
2023-05-18T08:01:41.833Z,18.068237
2023-05-18T08:02:51.628Z,18.219299
2023-05-18T08:04:01.243Z,18.259583
2023-05-18T08:05:10.891Z,18.501282
2023-05-18T08:06:19.514Z,18.551636
2023-05-18T08:07:28.148Z,18.35022
2023-05-18T08:08:37.833Z,18.078308
2023-05-18T08:09:45.494Z,17.625122
2023-05-18T08:10:54.186Z,17.60498
2023-05-18T08:12:03.771Z,17.635193
2023-05-18T08:13:12.403Z,17.292786
2023-05-18T08:14:22.114Z,17.272644
2023-05-18T08:15:30.982Z,17.312927
2023-05-18T08:16:39.435Z,17.514343
2023-05-18T08:17:49.157Z,17.625122
2023-05-18T08:18:57.828Z,17.796326
2023-05-18T08:20:06.494Z,17.85675
2023-05-18T08:21:16.138Z,17.524414
2023-05-18T08:22:24.789Z,17.383423
2023-05-18T08:23:34.441Z,17.60498
2023-05-18T08:24:43.129Z,17.443848
2023-05-18T08:25:51.756Z,17.59491
2023-05-18T08:27:01.436Z,17.826538
2023-05-18T08:28:11.057Z,17.997742
2023-05-18T08:29:19.789Z,17.816467
2023-05-18T08:30:29.457Z,17.715759
2023-05-18T08:31:36.084Z,17.715759
2023-05-18T08:32:45.716Z,17.786255
2023-05-18T08:33:54.398Z,17.85675
2023-05-18T08:35:04.094Z,17.625122
2023-05-18T08:36:13.719Z,17.524414
2023-05-18T08:37:22.379Z,17.635193
2023-05-18T08:38:31.042Z,17.312927
2023-05-18T08:39:39.778Z,17.010803
2023-05-18T08:40:48.414Z,17.020874
2023-05-18T08:41:58.073Z,17.141724
2023-05-18T08:43:07.828Z,16.97052
2023-05-18T08:44:17.516Z,16.960449
2023-05-18T08:45:27.189Z,16.960449
2023-05-18T08:46:35.850Z,16.930237
2023-05-18T08:47:45.640Z,16.940308
2023-05-18T08:48:54.237Z,16.940308
2023-05-18T08:50:02.839Z,16.789246
2023-05-18T08:51:12.550Z,16.910095
2023-05-18T08:52:22.284Z,16.5979
2023-05-18T08:53:31.962Z,16.305847
2023-05-18T08:54:40.657Z,16.225281
2023-05-18T08:55:48.280Z,15.882874
2023-05-18T08:56:57.970Z,16.044006
2023-05-18T08:58:05.663Z,16.104431
2023-05-18T08:59:14.356Z,16.023865
2023-05-18T09:00:24.472Z,16.154785
2023-05-18T09:01:32.698Z,15.882874
2023-05-18T09:02:42.301Z,15.772095
2023-05-18T09:03:50.950Z,15.822449
2023-05-18T09:04:59.591Z,15.701599
2023-05-18T09:06:09.270Z,15.923157
2023-05-18T09:07:18.946Z,15.943298
2023-05-18T09:08:27.610Z,16.195068
2023-05-18T09:09:37.251Z,16.456909
2023-05-18T09:10:46.962Z,16.759033
2023-05-18T09:11:56.594Z,16.8396
2023-05-18T09:13:05.240Z,16.910095
2023-05-18T09:14:13.870Z,17.121582
2023-05-18T09:15:23.628Z,17.192078
2023-05-18T09:16:32.507Z,17.202148
2023-05-18T09:17:42.043Z,17.302856
2023-05-18T09:18:51.699Z,17.443848
2023-05-18T09:19:59.357Z,17.524414
2023-05-18T09:21:09.006Z,17.383423
2023-05-18T09:22:17.685Z,17.081299
2023-05-18T09:23:25.320Z,17.061157
2023-05-18T09:24:35.004Z,17.010803
2023-05-18T09:25:42.681Z,16.990662
2023-05-18T09:26:51.326Z,16.71875
2023-05-18T09:28:00.997Z,16.356201
2023-05-18T09:29:09.667Z,16.08429
2023-05-18T09:30:18.376Z,16.054077
2023-05-18T09:31:28.196Z,16.044006
2023-05-18T09:32:37.741Z,16.054077
2023-05-18T09:33:47.352Z,16.235352
2023-05-18T09:34:56.008Z,16.34613
2023-05-18T09:36:04.652Z,16.638184
2023-05-18T09:37:14.301Z,16.567688
2023-05-18T09:38:22.954Z,16.527405
2023-05-18T09:39:32.746Z,16.235352
2023-05-18T09:40:41.407Z,16.044006
2023-05-18T09:41:49.043Z,16.154785
2023-05-18T09:42:58.701Z,16.195068
2023-05-18T09:44:07.996Z,16.255493
2023-05-18T09:45:16.809Z,16.456909
2023-05-18T09:46:25.550Z,16.658325
2023-05-18T09:47:34.140Z,16.748962
2023-05-18T09:48:43.779Z,16.648254
2023-05-18T09:49:52.523Z,16.507263
2023-05-18T09:51:02.217Z,16.507263
2023-05-18T09:52:10.862Z,16.507263
2023-05-18T09:53:19.569Z,16.567688
2023-05-18T09:54:28.228Z,16.527405
2023-05-18T09:55:38.896Z,16.356201
2023-05-18T09:56:55.249Z,16.507263
2023-05-18T09:57:58.263Z,16.386414
2023-05-18T09:59:06.917Z,16.325989
2023-05-18T10:00:15.570Z,16.386414
2023-05-18T10:01:26.305Z,16.497192
2023-05-18T10:02:33.984Z,16.497192
2023-05-18T10:03:43.637Z,16.648254
2023-05-18T10:04:53.262Z,16.638184
2023-05-18T10:06:00.931Z,16.386414
2023-05-18T10:07:10.615Z,16.46698
2023-05-18T10:08:20.413Z,16.759033
2023-05-18T10:09:30.132Z,17.262573
2023-05-18T10:10:39.801Z,17.463989
2023-05-18T10:11:47.487Z,17.59491
2023-05-18T10:12:56.135Z,17.715759
2023-05-18T10:14:05.828Z,17.866821
2023-05-18T10:15:14.464Z,17.967529
2023-05-18T10:16:24.178Z,18.22937
2023-05-18T10:17:32.915Z,18.330078
2023-05-18T10:18:41.597Z,18.179016
2023-05-18T10:19:51.246Z,18.249512
2023-05-18T10:21:00.298Z,18.35022
2023-05-18T10:22:08.581Z,18.430786
2023-05-18T10:23:18.475Z,18.450928
2023-05-18T10:24:26.129Z,18.007812
2023-05-18T10:25:35.842Z,17.564697
2023-05-18T10:26:44.524Z,17.776184
2023-05-18T10:27:55.148Z,17.897034
2023-05-18T10:29:03.815Z,17.705688
2023-05-18T10:30:12.464Z,17.242432
2023-05-18T10:31:22.189Z,16.8396
2023-05-18T10:32:31.810Z,16.930237
2023-05-18T10:33:39.489Z,16.809387
2023-05-18T10:34:49.075Z,16.779175
2023-05-18T10:35:57.886Z,16.497192
2023-05-18T10:37:08.358Z,16.487122
2023-05-18T10:38:17.234Z,16.567688
2023-05-18T10:39:26.888Z,16.779175
2023-05-18T10:40:35.581Z,16.900024
2023-05-18T10:41:45.327Z,16.779175
2023-05-18T10:42:54.138Z,16.456909
2023-05-18T10:44:03.832Z,16.325989
2023-05-18T10:45:13.602Z,16.34613
2023-05-18T10:46:23.293Z,16.607971
2023-05-18T10:47:32.103Z,16.859741
2023-05-18T10:48:40.610Z,16.910095
2023-05-18T10:49:50.298Z,16.990662
2023-05-18T10:50:58.957Z,16.859741
2023-05-18T10:52:08.665Z,16.889954
2023-05-18T10:53:18.295Z,16.748962
2023-05-18T10:54:26.049Z,16.648254
2023-05-18T10:55:35.716Z,16.678467
2023-05-18T10:56:44.373Z,16.356201
2023-05-18T10:57:54.070Z,16.305847
2023-05-18T10:59:03.665Z,16.406555
2023-05-18T11:00:11.298Z,16.577759
2023-05-18T11:01:19.947Z,16.638184
2023-05-18T11:02:29.652Z,16.688538
2023-05-18T11:03:37.270Z,16.658325
2023-05-18T11:04:46.945Z,16.487122
2023-05-18T11:05:55.619Z,16.325989
2023-05-18T11:07:05.315Z,16.205139
2023-05-18T11:08:15.103Z,16.275635
2023-05-18T11:09:23.730Z,16.275635
2023-05-18T11:10:32.576Z,16.275635
2023-05-18T11:11:42.173Z,16.174927
2023-05-18T11:12:50.857Z,16.174927
2023-05-18T11:14:00.529Z,16.154785
2023-05-18T11:15:09.158Z,16.08429
2023-05-18T11:16:16.957Z,16.013794
2023-05-18T11:17:26.564Z,16.285706
2023-05-18T11:18:36.265Z,16.003723
2023-05-18T11:19:45.893Z,16.104431
2023-05-18T11:20:55.534Z,15.953369
2023-05-18T11:22:04.191Z,15.973511
2023-05-18T11:23:13.861Z,16.154785
2023-05-18T11:24:23.666Z,16.356201
2023-05-18T11:25:33.187Z,16.648254
2023-05-18T11:26:42.922Z,16.708679
2023-05-18T11:27:52.583Z,16.456909
2023-05-18T11:29:01.280Z,16.406555
2023-05-18T11:30:15.466Z,16.46698
2023-05-18T11:31:19.656Z,16.567688
2023-05-18T11:32:30.764Z,16.748962
2023-05-18T11:33:38.998Z,16.930237
2023-05-18T11:34:48.619Z,17.292786
2023-05-18T11:35:58.286Z,17.484131
2023-05-18T11:37:05.959Z,17.564697
2023-05-18T11:38:14.583Z,17.564697
2023-05-18T11:39:24.236Z,17.564697
2023-05-18T11:40:32.191Z,17.524414
2023-05-18T11:41:41.716Z,17.59491
2023-05-18T11:42:50.324Z,17.494202
2023-05-18T11:43:59.971Z,17.333069
2023-05-18T11:45:09.651Z,17.413635
2023-05-18T11:46:17.469Z,17.484131
2023-05-18T11:47:26.163Z,17.60498
2023-05-18T11:48:35.890Z,17.413635
2023-05-18T11:49:43.455Z,17.242432
2023-05-18T11:50:53.178Z,17.22229
2023-05-18T11:52:01.855Z,17.312927
2023-05-18T11:53:11.492Z,17.544556
2023-05-18T11:54:21.208Z,17.675476
2023-05-18T11:55:29.875Z,17.816467
2023-05-18T11:56:38.664Z,17.735901
2023-05-18T11:57:48.313Z,17.776184
2023-05-18T11:58:56.954Z,17.544556
2023-05-18T12:00:06.631Z,17.272644
2023-05-18T12:01:15.321Z,17.202148
2023-05-18T12:02:23.016Z,17.443848
2023-05-18T12:03:32.721Z,17.625122
2023-05-18T12:04:41.409Z,17.645264
2023-05-18T12:05:50.020Z,17.776184
2023-05-18T12:06:59.687Z,18.158875
2023-05-18T12:08:07.346Z,18.450928
2023-05-18T12:09:17.015Z,18.440857
2023-05-18T12:10:25.680Z,19.155884
2023-05-18T12:11:33.338Z,19.639282
2023-05-18T12:12:43.041Z,20.032043
2023-05-18T12:13:51.655Z,20.575867
2023-05-18T12:15:00.338Z,20.585938
2023-05-18T12:16:10.011Z,20.575867
2023-05-18T12:17:16.657Z,19.961548
2023-05-18T12:18:26.285Z,19.729919
2023-05-18T12:19:34.964Z,19.035034
2023-05-18T12:20:44.617Z,18.632202
2023-05-18T12:21:54.470Z,18.753052
2023-05-18T12:23:03.131Z,19.437866
2023-05-18T12:24:11.805Z,19.699707
2023-05-18T12:25:21.470Z,19.588928
2023-05-18T12:26:31.150Z,19.659424
2023-05-18T12:27:40.826Z,19.659424
2023-05-18T12:28:50.526Z,19.548645
2023-05-18T12:30:00.193Z,19.48822
2023-05-18T12:31:09.860Z,19.065247
2023-05-18T12:32:18.534Z,18.783264
2023-05-18T12:33:26.192Z,18.440857
2023-05-18T12:34:35.908Z,18.179016
2023-05-18T12:35:45.572Z,18.078308
2023-05-18T12:36:55.225Z,18.128662
2023-05-18T12:38:03.923Z,18.883972
2023-05-18T12:39:11.596Z,19.10553
2023-05-18T12:40:21.238Z,19.306946
2023-05-18T12:41:28.875Z,19.437866
2023-05-18T12:42:38.568Z,19.296875
2023-05-18T12:43:46.195Z,18.833618
2023-05-18T12:44:55.858Z,18.491211
2023-05-18T12:46:06.545Z,18.340149
2023-05-18T12:47:14.186Z,18.068237
2023-05-18T12:48:23.824Z,17.866821
2023-05-18T12:49:32.512Z,17.886963
2023-05-18T12:50:41.151Z,17.59491
2023-05-18T12:51:50.825Z,17.413635
2023-05-18T12:52:58.459Z,17.272644
2023-05-18T12:54:07.123Z,17.423706
2023-05-18T12:55:16.759Z,17.393494
2023-05-18T12:56:24.480Z,17.574768
2023-05-18T12:57:33.134Z,17.675476
2023-05-18T12:58:41.812Z,17.735901
2023-05-18T12:59:51.453Z,17.735901
2023-05-18T13:01:01.202Z,17.59491
2023-05-18T13:02:09.805Z,17.665405
2023-05-18T13:03:18.463Z,17.84668
2023-05-18T13:04:28.045Z,18.179016
2023-05-18T13:05:35.751Z,18.279724
2023-05-18T13:06:45.407Z,18.501282
2023-05-18T13:07:53.072Z,18.400574
2023-05-18T13:09:01.719Z,18.309937
2023-05-18T13:10:12.364Z,17.84668
2023-05-18T13:11:20.025Z,17.625122
2023-05-18T13:12:28.692Z,17.665405
2023-05-18T13:13:38.346Z,17.443848
2023-05-18T13:14:47.070Z,17.34314
2023-05-18T13:15:56.781Z,17.242432